Time;durP1;ratioP1;P1;durP2;ratioP2;P2;SDS_P1;SDS_P2;PMS_P1;PMS_P2;Temp;Humidity;BMP_temperature;BMP_pressure;BME280_temperature;BME280_humidity;BME280_pressure;Samples;Min_cycle;Max_cycle;Signal;HPM_P1;HPM_P2
2021/03/18 00:01:05;;;;;;;14.70;9.07;;;205.30;1638.40;;;;;;5071961;28;20052;-74
2021/03/18 00:03:33;;;;;;;14.63;9.50;;;205.30;1664.00;;;;;;5073388;28;20107;-74
2021/03/18 00:05:59;;;;;;;16.23;9.75;;;205.30;1664.00;;;;;;5071331;28;20094;-74
2021/03/18 00:08:26;;;;;;;19.38;11.50;;;205.30;1664.00;;;;;;5073168;28;20492;-74
2021/03/18 00:10:53;;;;;;;17.65;10.93;;;205.20;1715.20;;;;;;5073136;28;20074;-74
2021/03/18 00:13:20;;;;;;;18.90;12.05;;;205.10;1715.20;;;;;;5073164;28;20016;-74
2021/03/18 00:15:46;;;;;;;21.27;12.63;;;205.10;1715.20;;;;;;5073991;28;20021;-74
2021/03/18 00:18:15;;;;;;;17.67;11.40;;;205.10;1715.20;;;;;;5075822;28;20039;-74
2021/03/18 00:20:40;;;;;;;18.90;11.68;;;205.10;1715.20;;;;;;5075827;28;20040;-74
2021/03/18 00:23:06;;;;;;;20.05;11.07;;;205.10;1715.20;;;;;;5077128;28;20024;-74
2021/03/18 00:25:32;;;;;;;17.02;10.95;;;205.10;1715.20;;;;;;5075290;28;20060;-74
2021/03/18 00:27:59;;;;;;;17.33;10.55;;;205.10;1689.60;;;;;;5076737;28;20028;-74
2021/03/18 00:30:26;;;;;;;13.48;8.85;;;205.10;1715.20;;;;;;5075635;28;20027;-74
2021/03/18 00:32:52;;;;;;;15.85;10.25;;;205.10;1715.20;;;;;;5076885;28;20082;-74
2021/03/18 00:35:20;;;;;;;14.25;9.35;;;205.10;1689.60;;;;;;5076869;28;20051;-74
2021/03/18 00:37:48;;;;;;;18.67;10.30;;;205.10;1689.60;;;;;;5075356;28;20043;-74
2021/03/18 00:40:22;;;;;;;16.83;9.55;;;205.00;1689.60;;;;;;5076276;28;20073;-74
2021/03/18 00:43:00;;;;;;;16.90;10.25;;;205.10;1689.60;;;;;;5075308;28;20434;-74
2021/03/18 00:45:29;;;;;;;17.85;10.05;;;205.00;1715.20;;;;;;5074834;28;20036;-74
2021/03/18 00:47:56;;;;;;;15.68;10.38;;;205.00;1715.20;;;;;;5076242;28;20028;-73
2021/03/18 00:50:29;;;;;;;17.38;10.38;;;204.90;1715.20;;;;;;5075461;28;20362;-74
2021/03/18 00:52:55;;;;;;;18.95;12.23;;;204.90;1740.80;;;;;;5074722;28;20028;-74
2021/03/18 00:55:22;;;;;;;20.63;12.23;;;204.90;1740.80;;;;;;5074585;28;20036;-74
2021/03/18 00:57:48;;;;;;;21.25;13.65;;;204.90;1766.40;;;;;;5075048;28;20056;-74
2021/03/18 01:00:19;;;;;;;22.27;14.52;;;204.90;1792.00;;;;;;5074895;28;20048;-74
2021/03/18 01:02:44;;;;;;;23.25;15.18;;;204.90;1766.40;;;;;;5075127;28;20107;-74
2021/03/18 01:05:18;;;;;;;21.55;12.93;;;204.80;1792.00;;;;;;5073171;28;20165;-74
2021/03/18 01:07:44;;;;;;;18.88;12.15;;;204.80;1792.00;;;;;;5073112;28;20044;-74
2021/03/18 01:10:12;;;;;;;19.35;12.13;;;180.10;1792.00;;;;;;5074460;28;20154;-75
2021/03/18 01:12:38;;;;;;;16.67;10.10;;;204.80;1766.40;;;;;;5073793;28;20073;-74
2021/03/18 01:15:05;;;;;;;16.42;10.50;;;180.10;1792.00;;;;;;5075982;28;20104;-74
2021/03/18 01:17:31;;;;;;;17.27;10.35;;;204.80;1766.40;;;;;;5074877;28;20025;-74
2021/03/18 01:19:57;;;;;;;20.50;11.57;;;180.10;1766.40;;;;;;5074393;28;20131;-74
2021/03/18 01:22:23;;;;;;;16.80;11.35;;;204.80;1766.40;;;;;;5075883;28;20110;-74
2021/03/18 01:24:52;;;;;;;18.92;11.57;;;180.10;1766.40;;;;;;5075606;28;20040;-74
2021/03/18 01:27:18;;;;;;;18.55;11.68;;;180.10;1766.40;;;;;;5075348;28;20078;-74
2021/03/18 01:29:44;;;;;;;21.38;12.80;;;180.10;1766.40;;;;;;5074556;28;20411;-74
2021/03/18 01:32:09;;;;;;;17.17;10.80;;;180.10;1740.80;;;;;;5075897;28;20096;-74
2021/03/18 01:34:35;;;;;;;15.15;9.75;;;180.00;1740.80;;;;;;5076015;28;20021;-74
2021/03/18 01:37:01;;;;;;;20.67;10.73;;;180.00;1740.80;;;;;;5074357;28;20028;-74
2021/03/18 01:39:26;;;;;;;16.77;10.27;;;180.00;1740.80;;;;;;5074334;28;20469;-74
2021/03/18 01:41:52;;;;;;;16.02;11.77;;;180.00;1740.80;;;;;;5074292;28;20028;-74
2021/03/18 01:44:18;;;;;;;16.75;11.50;;;180.00;1740.80;;;;;;5075542;28;20025;-74
2021/03/18 01:46:43;;;;;;;15.93;10.02;;;180.00;1715.20;;;;;;5075056;28;20099;-74
2021/03/18 01:49:09;;;;;;;16.73;11.05;;;180.00;1715.20;;;;;;5074871;28;20020;-74
2021/03/18 01:51:36;;;;;;;15.95;11.13;;;180.10;1715.20;;;;;;5074276;28;20061;-74
2021/03/18 01:54:01;;;;;;;15.27;10.85;;;180.10;1715.20;;;;;;5076222;28;20071;-74
2021/03/18 01:56:27;;;;;;;14.60;10.48;;;180.00;1740.80;;;;;;5074114;28;20055;-74
2021/03/18 01:58:53;;;;;;;14.13;10.50;;;180.00;1740.80;;;;;;5073950;28;20495;-74
2021/03/18 02:01:19;;;;;;;17.05;11.63;;;179.90;1740.80;;;;;;5073951;28;20025;-74
2021/03/18 02:03:45;;;;;;;17.50;11.95;;;180.00;1740.80;;;;;;5073858;28;20476;-74
2021/03/18 02:06:11;;;;;;;31.38;15.20;;;179.90;1766.40;;;;;;5075014;28;20063;-74
2021/03/18 02:08:37;;;;;;;36.03;19.48;;;180.00;1740.80;;;;;;5074261;28;20024;-74
2021/03/18 02:11:04;;;;;;;29.90;17.05;;;179.90;1740.80;;;;;;5073688;28;20465;-74
2021/03/18 02:13:30;;;;;;;27.38;15.18;;;179.90;1766.40;;;;;;5073688;28;20476;-74
2021/03/18 02:16:00;;;;;;;23.23;13.60;;;179.90;1766.40;;;;;;5074995;28;20448;-74
2021/03/18 02:18:50;;;;;;;19.80;12.18;;;179.90;1766.40;;;;;;5073980;28;20482;-73
2021/03/18 02:21:38;;;;;;;16.75;10.52;;;179.90;1766.40;;;;;;5073912;28;20056;-74
2021/03/18 02:24:25;;;;;;;15.05;10.30;;;179.90;1766.40;;;;;;5073493;28;20032;-74
2021/03/18 02:26:54;;;;;;;16.35;10.90;;;179.90;1740.80;;;;;;5074742;28;20529;-74
2021/03/18 02:29:58;;;;;;;16.75;11.05;;;179.90;1766.40;;;;;;5075101;28;20095;-74
2021/03/18 02:32:50;;;;;;;15.45;9.98;;;179.90;1766.40;;;;;;5073007;28;20078;-74
2021/03/18 02:35:29;;;;;;;21.77;11.45;;;179.80;1766.40;;;;;;5074753;28;20032;-74
2021/03/18 02:38:09;;;;;;;16.20;10.75;;;179.80;1766.40;;;;;;5074228;28;20451;-73
2021/03/18 02:40:40;;;;;;;19.67;11.57;;;179.80;1766.40;;;;;;5074442;28;20064;-73
2021/03/18 02:43:07;;;;;;;;;;;179.80;1766.40;;;;;;5075081;28;20253;-74
2021/03/18 02:45:40;;;;;;;19.10;12.00;;;179.80;1766.40;;;;;;5074475;28;19917;-74
2021/03/18 02:48:09;;;;;;;15.55;11.13;;;179.80;1792.00;;;;;;5074305;28;20381;-74
2021/03/18 02:50:36;;;;;;;19.15;12.43;;;179.80;1792.00;;;;;;5072946;28;20115;-74
2021/03/18 02:53:04;;;;;;;19.38;11.75;;;179.80;1792.00;;;;;;5074149;28;20462;-74
2021/03/18 02:55:31;;;;;;;16.70;12.43;;;179.80;1792.00;;;;;;5072887;28;20044;-74
2021/03/18 02:58:00;;;;;;;15.48;11.25;;;179.80;1792.00;;;;;;5073099;28;20021;-74
2021/03/18 03:00:26;;;;;;;19.80;12.20;;;179.70;1792.00;;;;;;5072815;28;20028;-74
2021/03/18 03:02:54;;;;;;;18.30;11.48;;;179.90;1792.00;;;;;;5072643;28;20476;-74
2021/03/18 03:05:22;;;;;;;21.25;13.80;;;179.80;1792.00;;;;;;5072213;28;20045;-74
2021/03/18 03:07:49;;;;;;;22.88;12.95;;;179.70;1817.60;;;;;;5073734;28;20114;-74
2021/03/18 03:10:21;;;;;;;16.98;11.95;;;179.80;1817.60;;;;;;5073880;28;20091;-74
2021/03/18 03:12:48;;;;;;;18.55;12.77;;;179.70;1817.60;;;;;;5068230;28;20020;-74
2021/03/18 03:15:15;;;;;;;22.00;12.40;;;179.70;1817.60;;;;;;5073845;28;20024;-74
2021/03/18 03:17:42;;;;;;;18.13;13.73;;;179.70;1843.20;;;;;;5073770;28;20032;-75
2021/03/18 03:20:09;;;;;;;17.90;12.88;;;179.70;1817.60;;;;;;5072240;28;20054;-74
2021/03/18 03:22:36;;;;;;;17.77;11.93;;;179.70;1843.20;;;;;;5072255;28;20059;-74
2021/03/18 03:25:08;;;;;;;18.50;11.35;;;179.70;1817.60;;;;;;5073575;28;20032;-74
2021/03/18 03:27:35;;;;;;;18.15;11.57;;;179.60;1817.60;;;;;;5072343;28;20032;-74
2021/03/18 03:30:04;;;;;;;16.00;12.52;;;179.70;1817.60;;;;;;5073602;28;20042;-74
2021/03/18 03:32:30;;;;;;;18.55;12.65;;;179.70;1817.60;;;;;;5056198;28;20546;-74
2021/03/18 03:34:56;;;;;;;18.30;12.20;;;179.80;1817.60;;;;;;5072334;28;20020;-74
2021/03/18 03:37:22;;;;;;;21.65;11.13;;;179.70;1843.20;;;;;;5072497;28;20021;-74
2021/03/18 03:39:48;;;;;;;15.75;12.27;;;179.70;1817.60;;;;;;5073270;28;20439;-74
2021/03/18 03:42:14;;;;;;;16.27;11.30;;;179.80;1817.60;;;;;;5073723;28;20492;-74
2021/03/18 03:44:40;;;;;;;16.63;11.50;;;179.70;1817.60;;;;;;5072124;28;20040;-74
2021/03/18 03:47:08;;;;;;;14.93;11.30;;;179.80;1817.60;;;;;;5073275;28;20121;-73
2021/03/18 03:49:34;;;;;;;16.30;11.55;;;179.70;1817.60;;;;;;5072216;28;20502;-74
2021/03/18 03:52:23;;;;;;;17.02;12.43;;;179.60;1817.60;;;;;;5073501;28;20389;-74
2021/03/18 03:55:03;;;;;;;18.08;12.02;;;179.60;1843.20;;;;;;5072063;28;20464;-74
2021/03/18 03:57:39;;;;;;;19.38;11.73;;;179.60;1843.20;;;;;;5072196;28;20035;-74
2021/03/18 04:00:08;;;;;;;16.42;11.35;;;179.60;1843.20;;;;;;5073301;28;20116;-74
2021/03/18 04:02:35;;;;;;;19.20;12.60;;;179.60;1843.20;;;;;;5071295;28;20068;-74
2021/03/18 04:05:03;;;;;;;17.30;11.70;;;179.60;1843.20;;;;;;5073390;28;20529;-74
2021/03/18 04:07:32;;;;;;;18.25;11.95;;;179.60;1817.60;;;;;;5070515;28;20374;-74
2021/03/18 04:09:59;;;;;;;16.35;11.65;;;179.60;1843.20;;;;;;5071900;28;20016;-74
2021/03/18 04:12:31;;;;;;;19.25;10.90;;;179.60;1843.20;;;;;;5071684;28;20143;-73
2021/03/18 04:15:01;;;;;;;20.48;12.57;;;179.60;1843.20;;;;;;5070640;28;20104;-74
2021/03/18 04:17:30;;;;;;;20.15;12.10;;;179.60;1843.20;;;;;;5072266;28;20017;-74
2021/03/18 04:19:58;;;;;;;19.52;13.77;;;179.60;1843.20;;;;;;5073069;28;20032;-74
2021/03/18 04:22:28;;;;;;;22.35;13.15;;;179.70;1817.60;;;;;;5071432;28;20032;-74
2021/03/18 04:24:54;;;;;;;21.60;12.63;;;179.70;1817.60;;;;;;5071715;28;20025;-73
2021/03/18 04:27:21;;;;;;;18.00;11.60;;;179.70;1817.60;;;;;;5073034;28;20039;-74
2021/03/18 04:29:47;;;;;;;16.33;10.90;;;179.70;1817.60;;;;;;5073332;28;20349;-74
2021/03/18 04:32:14;;;;;;;16.98;11.50;;;179.70;1817.60;;;;;;5073094;28;20027;-73
2021/03/18 04:34:43;;;;;;;14.93;10.35;;;179.60;1817.60;;;;;;5072695;28;20024;-74
2021/03/18 04:37:09;;;;;;;15.65;10.68;;;179.60;1817.60;;;;;;5073100;28;20032;-74
2021/03/18 04:39:39;;;;;;;15.52;10.02;;;179.60;1843.20;;;;;;5071713;28;20087;-74
2021/03/18 04:42:07;;;;;;;14.63;10.18;;;179.60;1817.60;;;;;;5071377;28;20024;-74
2021/03/18 04:44:33;;;;;;;14.27;10.43;;;179.70;1817.60;;;;;;5072814;28;20094;-74
2021/03/18 04:47:01;;;;;;;15.18;10.55;;;179.60;1843.20;;;;;;5072028;28;20029;-74
2021/03/18 04:49:27;;;;;;;13.43;9.52;;;179.60;1843.20;;;;;;5071570;28;20365;-74
2021/03/18 04:51:54;;;;;;;14.85;10.73;;;179.60;1868.80;;;;;;5072680;28;20016;-74
2021/03/18 04:54:20;;;;;;;16.02;10.70;;;179.70;1868.80;;;;;;5072739;28;20020;-74
2021/03/18 04:56:47;;;;;;;15.85;11.23;;;179.70;1868.80;;;;;;5072114;28;20151;-74
2021/03/18 04:59:17;;;;;;;16.98;11.55;;;179.60;1868.80;;;;;;5072037;28;20036;-74
2021/03/18 05:01:47;;;;;;;15.40;11.20;;;179.70;1868.80;;;;;;5073553;28;20048;-74
2021/03/18 05:04:18;;;;;;;16.40;10.60;;;179.60;1894.40;;;;;;5074594;28;20088;-73
2021/03/18 05:06:50;;;;;;;14.70;10.73;;;179.60;1868.80;;;;;;5075874;28;20044;-73
2021/03/18 05:09:16;;;;;;;15.15;10.70;;;179.60;1868.80;;;;;;5076126;28;20043;-73
2021/03/18 05:11:43;;;;;;;18.13;12.23;;;179.60;1894.40;;;;;;5076365;28;20048;-74
2021/03/18 05:14:11;;;;;;;19.58;14.63;;;179.60;1894.40;;;;;;5074789;28;20040;-74
2021/03/18 05:16:37;;;;;;;21.88;13.25;;;179.60;1894.40;;;;;;5075842;28;20028;-74
2021/03/18 05:19:07;;;;;;;16.88;10.82;;;179.60;1894.40;;;;;;5075908;28;20021;-74
2021/03/18 05:21:33;;;;;;;16.15;10.73;;;179.60;1868.80;;;;;;5076002;28;20016;-74
2021/03/18 05:24:01;;;;;;;16.33;12.13;;;179.60;1894.40;;;;;;5074648;28;20535;-74
2021/03/18 05:26:27;;;;;;;16.42;12.55;;;179.60;1868.80;;;;;;5074183;28;20093;-74
2021/03/18 05:28:52;;;;;;;19.95;12.27;;;179.70;1868.80;;;;;;5075840;28;20024;-74
2021/03/18 05:31:21;;;;;;;24.70;13.90;;;179.60;1868.80;;;;;;5074578;28;20120;-75
2021/03/18 05:33:47;;;;;;;19.70;12.35;;;179.60;1894.40;;;;;;5074674;28;20031;-74
2021/03/18 05:36:12;;;;;;;22.45;12.85;;;179.60;1894.40;;;;;;5075676;28;20029;-74
2021/03/18 05:38:38;;;;;;;17.77;11.73;;;179.60;1894.40;;;;;;5075696;28;20025;-74
2021/03/18 05:41:04;;;;;;;13.68;10.15;;;179.60;1920.00;;;;;;5074167;28;20024;-74
2021/03/18 05:43:30;;;;;;;16.92;12.00;;;179.60;1894.40;;;;;;5074429;28;20032;-73
2021/03/18 05:45:55;;;;;;;16.70;11.93;;;179.60;1920.00;;;;;;5073718;28;20507;-74
2021/03/18 05:48:22;;;;;;;14.13;10.70;;;179.60;1920.00;;;;;;5075265;28;20083;-74
2021/03/18 05:50:48;;;;;;;18.35;10.88;;;179.50;1945.60;;;;;;5075737;28;20048;-74
2021/03/18 05:53:17;;;;;;;14.07;10.10;;;179.50;1920.00;;;;;;5075415;28;20499;-74
2021/03/18 05:55:44;;;;;;;14.35;11.00;;;179.50;1920.00;;;;;;5075340;28;20134;-74
2021/03/18 05:58:12;;;;;;;15.45;10.85;;;179.50;1945.60;;;;;;5075484;28;20029;-74
2021/03/18 06:00:38;;;;;;;16.08;11.38;;;179.60;1945.60;;;;;;5075273;28;20431;-73
2021/03/18 06:03:04;;;;;;;16.15;10.15;;;179.50;1945.60;;;;;;5074930;28;20024;-75
2021/03/18 06:05:30;;;;;;;13.95;10.07;;;179.60;1945.60;;;;;;5072989;28;20036;-74
2021/03/18 06:07:56;;;;;;;13.48;10.30;;;179.50;1945.60;;;;;;5080585;28;20024;-74
2021/03/18 06:10:24;;;;;;;13.05;9.23;;;179.60;1945.60;;;;;;5114395;28;20106;-74
2021/03/18 06:12:52;;;;;;;11.48;9.00;;;179.60;1945.60;;;;;;5115334;28;20020;-74
2021/03/18 06:15:19;;;;;;;15.88;9.85;;;179.50;1971.20;;;;;;5114133;28;20054;-74
2021/03/18 06:17:45;;;;;;;14.85;9.82;;;179.50;1971.20;;;;;;5115530;28;20015;-74
2021/03/18 06:20:15;;;;;;;15.48;10.13;;;179.50;1971.20;;;;;;5114169;28;20055;-74
2021/03/18 06:22:46;;;;;;;14.73;10.10;;;179.60;1971.20;;;;;;5113784;28;20119;-73
2021/03/18 06:25:37;;;;;;;;;;;179.60;1996.80;;;;;;5115822;28;20024;-73
2021/03/18 06:28:22;;;;;;;15.80;10.15;;;179.50;1996.80;;;;;;5109753;28;20279;-74
2021/03/18 06:31:02;;;;;;;13.45;10.70;;;179.50;1996.80;;;;;;5113954;28;20484;-74
2021/03/18 06:33:30;;;;;;;14.30;11.02;;;179.50;1996.80;;;;;;5115232;28;20020;-80
2021/03/18 06:35:57;;;;;;;18.55;14.27;;;179.50;2022.40;;;;;;5114893;28;20032;-74
2021/03/18 06:38:30;;;;;;;20.15;13.25;;;179.50;2022.40;;;;;;5100021;28;20028;-74
2021/03/18 06:40:57;;;;;;;16.08;13.52;;;179.50;2022.40;;;;;;5093047;28;20035;-74
2021/03/18 06:43:42;;;;;;;18.73;13.73;;;179.60;2022.40;;;;;;5094496;28;20039;-74
2021/03/18 06:46:26;;;;;;;17.30;14.05;;;179.50;2022.40;;;;;;5092623;28;20035;-73
2021/03/18 06:48:52;;;;;;;19.00;13.32;;;179.50;2022.40;;;;;;5084992;28;20055;-74
2021/03/18 06:51:24;;;;;;;21.85;13.68;;;179.50;2048.00;;;;;;5092745;28;20052;-74
2021/03/18 06:53:50;;;;;;;36.92;19.75;;;179.60;2022.40;;;;;;5094023;28;20071;-74
2021/03/18 06:56:27;;;;;;;27.75;16.73;;;179.60;2022.40;;;;;;5093388;28;20027;-74
2021/03/18 06:58:53;;;;;;;24.33;14.82;;;179.60;2022.40;;;;;;5094423;28;20024;-74
2021/03/18 07:01:24;;;;;;;18.85;12.68;;;179.60;2022.40;;;;;;5094339;28;20371;-74
2021/03/18 07:03:50;;;;;;;17.02;11.23;;;179.60;2022.40;;;;;;5094440;28;20030;-74
2021/03/18 07:06:33;;;;;;;18.27;14.63;;;179.60;1996.80;;;;;;5092307;28;20568;-74
2021/03/18 07:09:07;;;;;;;17.30;12.40;;;179.70;1996.80;;;;;;5093870;28;20028;-74
2021/03/18 07:11:45;;;;;;;17.65;12.55;;;179.60;1996.80;;;;;;5093840;28;20039;-74
2021/03/18 07:14:11;;;;;;;19.75;13.82;;;179.60;2022.40;;;;;;5092733;28;20012;-73
2021/03/18 07:16:48;;;;;;;20.85;14.00;;;179.60;2022.40;;;;;;5093236;28;20555;-73
2021/03/18 07:19:24;;;;;;;24.15;15.13;;;179.60;2022.40;;;;;;5092433;28;20479;-73
2021/03/18 07:21:51;;;;;;;21.05;13.77;;;179.60;2022.40;;;;;;5090905;28;20082;-73
2021/03/18 07:24:24;;;;;;;20.13;13.25;;;179.60;2022.40;;;;;;5092308;28;20391;-73
2021/03/18 07:26:51;;;;;;;22.15;15.50;;;179.60;2022.40;;;;;;5093889;28;20032;-73
2021/03/18 07:29:25;;;;;;;29.88;17.00;;;179.60;2022.40;;;;;;5092559;28;20049;-73
2021/03/18 07:31:52;;;;;;;25.65;15.45;;;179.60;2022.40;;;;;;5093794;28;20019;-73
2021/03/18 07:34:19;;;;;;;18.92;14.40;;;179.60;2022.40;;;;;;5093207;28;20016;-73
2021/03/18 07:36:46;;;;;;;26.23;14.88;;;179.60;2022.40;;;;;;5091124;28;20043;-73
2021/03/18 07:39:12;;;;;;;25.17;15.70;;;179.60;2022.40;;;;;;5092686;28;20439;-74
2021/03/18 07:41:38;;;;;;;24.60;14.93;;;179.60;2048.00;;;;;;5093696;28;20095;-74
2021/03/18 07:44:05;;;;;;;16.13;11.48;;;179.60;2022.40;;;;;;5094287;28;20096;-73
2021/03/18 07:46:34;;;;;;;15.35;10.35;;;179.60;2022.40;;;;;;5092774;28;20031;-73
2021/03/18 07:49:10;;;;;;;14.90;11.57;;;179.60;2022.40;;;;;;5092307;28;20031;-73
2021/03/18 07:51:38;;;;;;;14.90;11.02;;;179.60;2022.40;;;;;;5091960;28;20018;-73
2021/03/18 07:54:06;;;;;;;19.85;13.18;;;179.60;2022.40;;;;;;5093536;28;20020;-74
2021/03/18 07:56:32;;;;;;;17.90;11.95;;;179.60;2022.40;;;;;;5092166;28;20039;-74
2021/03/18 07:59:06;;;;;;;23.48;14.32;;;179.60;1996.80;;;;;;5093843;28;20051;-74
2021/03/18 08:01:32;;;;;;;18.85;13.52;;;179.60;2022.40;;;;;;5093170;28;20788;-74
2021/03/18 08:04:00;;;;;;;17.77;13.55;;;179.60;2022.40;;;;;;5091969;28;20024;-73
2021/03/18 08:06:44;;;;;;;23.67;15.70;;;179.60;2022.40;;;;;;5090589;28;20052;-74
2021/03/18 08:09:12;;;;;;;38.28;21.45;;;179.60;2022.40;;;;;;5092844;28;20099;-74
2021/03/18 08:11:39;;;;;;;22.42;15.88;;;179.60;2022.40;;;;;;5093280;28;20028;-74
2021/03/18 08:14:09;;;;;;;30.20;20.30;;;179.60;2048.00;;;;;;5093756;28;20067;-74
2021/03/18 08:16:35;;;;;;;27.40;18.73;;;179.60;2022.40;;;;;;5093407;28;20020;-74
2021/03/18 08:19:02;;;;;;;25.73;17.25;;;179.60;2022.40;;;;;;5091644;28;20756;-74
2021/03/18 08:21:54;;;;;;;25.73;17.17;;;179.60;2022.40;;;;;;5093155;28;20032;-74
2021/03/18 08:24:20;;;;;;;25.13;16.48;;;179.60;2022.40;;;;;;5090511;28;20682;-74
2021/03/18 08:27:01;;;;;;;22.50;14.57;;;179.60;2022.40;;;;;;5093080;28;20080;-74
2021/03/18 08:29:47;;;;;;;29.70;19.35;;;179.60;2048.00;;;;;;5093125;28;20092;-74
2021/03/18 08:32:34;;;;;;;33.95;20.55;;;179.60;2048.00;;;;;;5091514;28;20032;-74
2021/03/18 08:35:00;;;;;;;25.95;17.10;;;179.60;2048.00;;;;;;5093304;28;20029;-74
2021/03/18 08:37:36;;;;;;;23.65;14.52;;;179.60;2048.00;;;;;;5094927;28;20095;-74
2021/03/18 08:40:06;;;;;;;21.30;14.95;;;179.60;2048.00;;;;;;5097277;28;20112;-74
2021/03/18 08:42:35;;;;;;;21.63;15.65;;;179.60;2073.60;;;;;;5097096;28;20031;-74
2021/03/18 08:45:07;;;;;;;21.00;14.63;;;179.60;2048.00;;;;;;5095523;28;20082;-74
2021/03/18 08:47:42;;;;;;;18.83;13.00;;;179.60;2048.00;;;;;;5096795;28;20108;-74
2021/03/18 08:50:14;;;;;;;19.00;13.00;;;179.60;2048.00;;;;;;5095913;28;20028;-74
2021/03/18 08:52:45;;;;;;;26.25;17.23;;;179.60;2048.00;;;;;;5095632;28;20034;-74
2021/03/18 08:55:12;;;;;;;28.08;17.70;;;179.60;2048.00;;;;;;5095442;28;20472;-74
2021/03/18 08:57:39;;;;;;;27.10;18.50;;;179.50;2048.00;;;;;;5096637;28;20028;-74
2021/03/18 09:00:13;;;;;;;26.80;16.98;;;179.50;2048.00;;;;;;5096463;28;20024;-74
2021/03/18 09:02:39;;;;;;;26.00;16.23;;;179.50;2073.60;;;;;;5095397;28;20024;-74
2021/03/18 09:05:15;;;;;;;28.27;17.48;;;179.50;2073.60;;;;;;5095301;28;20039;-74
2021/03/18 09:07:42;;;;;;;26.30;17.90;;;179.40;2073.60;;;;;;5096839;28;20044;-74
2021/03/18 09:10:12;;;;;;;22.85;17.15;;;179.50;2073.60;;;;;;5094822;28;20024;-74
2021/03/18 09:13:01;;;;;;;22.17;15.02;;;179.60;2048.00;;;;;;5093819;28;20031;-74
2021/03/18 09:15:36;;;;;;;23.08;15.48;;;179.60;2073.60;;;;;;5095063;28;20051;-74
2021/03/18 09:18:14;;;;;;;22.40;15.73;;;179.60;2099.20;;;;;;5095314;28;20043;-74
2021/03/18 09:20:42;;;;;;;21.17;14.00;;;179.60;2099.20;;;;;;5096705;28;20101;-74
2021/03/18 09:23:12;;;;;;;29.08;20.08;;;179.60;2073.60;;;;;;5095395;28;20024;-74
2021/03/18 09:25:38;;;;;;;45.83;32.28;;;179.60;2073.60;;;;;;5094434;28;20047;-74
2021/03/18 09:28:05;;;;;;;46.80;32.95;;;179.60;2073.60;;;;;;5096116;28;20525;-74
2021/03/18 09:30:33;;;;;;;26.52;20.00;;;179.70;2073.60;;;;;;5094543;28;20035;-75
2021/03/18 09:33:00;;;;;;;22.98;17.25;;;179.60;2073.60;;;;;;5095817;28;20020;-74
2021/03/18 09:35:27;;;;;;;18.20;14.98;;;179.60;2048.00;;;;;;5096274;28;20095;-74
2021/03/18 09:37:53;;;;;;;20.40;15.20;;;179.60;2073.60;;;;;;5094941;28;20471;-74
2021/03/18 09:40:30;;;;;;;20.52;15.30;;;179.70;2073.60;;;;;;5095703;28;20038;-74
2021/03/18 09:42:56;;;;;;;24.63;18.63;;;179.80;2073.60;;;;;;5095908;28;20107;-74
2021/03/18 09:45:22;;;;;;;23.55;16.38;;;179.80;2073.60;;;;;;5095499;28;20103;-74
2021/03/18 09:47:50;;;;;;;23.88;16.33;;;179.70;2073.60;;;;;;5094249;28;20086;-74
2021/03/18 09:50:16;;;;;;;21.80;15.57;;;179.80;2073.60;;;;;;5095588;28;20095;-74
2021/03/18 09:52:42;;;;;;;19.67;14.43;;;179.90;2048.00;;;;;;5090715;28;20029;-74
2021/03/18 09:55:15;;;;;;;20.48;14.98;;;179.80;2073.60;;;;;;5073820;28;20425;-73
2021/03/18 09:57:41;;;;;;;25.20;16.17;;;179.90;2073.60;;;;;;5074347;28;20028;-73
2021/03/18 10:00:09;;;;;;;21.70;15.45;;;179.90;2073.60;;;;;;5074784;28;20067;-73
2021/03/18 10:02:35;;;;;;;20.10;14.73;;;179.90;2073.60;;;;;;5075129;28;20050;-73
2021/03/18 10:05:01;;;;;;;19.33;15.60;;;179.90;2073.60;;;;;;5075001;28;20033;-74
2021/03/18 10:07:29;;;;;;;20.45;14.45;;;180.00;2048.00;;;;;;5073470;28;20094;-73
2021/03/18 10:09:56;;;;;;;24.88;16.73;;;180.10;2048.00;;;;;;5073696;28;20020;-73
2021/03/18 10:12:25;;;;;;;26.88;17.27;;;180.10;2048.00;;;;;;5074951;28;20028;-73
2021/03/18 10:15:03;;;;;;;24.30;16.67;;;180.10;2048.00;;;;;;5074618;28;20047;-73
2021/03/18 10:17:32;;;;;;;26.75;17.70;;;204.80;2073.60;;;;;;5074650;28;20020;-73
2021/03/18 10:20:08;;;;;;;21.27;15.75;;;180.10;2048.00;;;;;;5074411;28;20063;-73
2021/03/18 10:22:38;;;;;;;21.27;16.00;;;204.80;2073.60;;;;;;5073379;28;20025;-73
2021/03/18 10:25:16;;;;;;;24.40;17.15;;;204.90;2048.00;;;;;;5074587;28;20402;-73
2021/03/18 10:27:47;;;;;;;30.52;19.35;;;204.90;2048.00;;;;;;5074540;28;20032;-73
2021/03/18 10:30:14;;;;;;;23.83;17.63;;;205.00;2073.60;;;;;;5074103;28;20025;-74
2021/03/18 10:32:42;;;;;;;22.00;16.80;;;205.00;2048.00;;;;;;5072962;28;20029;-73
2021/03/18 10:35:10;;;;;;;24.95;17.73;;;205.00;2022.40;;;;;;5072579;28;20476;-73
2021/03/18 10:37:43;;;;;;;23.13;16.75;;;205.00;2048.00;;;;;;5074465;28;20034;-73
2021/03/18 10:40:21;;;;;;;24.73;16.20;;;205.10;2022.40;;;;;;5056728;28;20032;-73
2021/03/18 10:42:50;;;;;;;20.42;15.98;;;205.10;1996.80;;;;;;5074196;28;20016;-74
2021/03/18 10:45:25;;;;;;;20.65;14.88;;;205.10;2048.00;;;;;;5072709;28;20028;-73
2021/03/18 10:47:57;;;;;;;19.42;14.88;;;205.20;2048.00;;;;;;5073084;28;20043;-72
2021/03/18 10:50:26;;;;;;;19.25;14.55;;;205.20;2022.40;;;;;;5074074;28;20143;-73
2021/03/18 10:52:57;;;;;;;22.63;15.60;;;205.20;1996.80;;;;;;5074463;28;20024;-73
2021/03/18 10:55:26;;;;;;;22.77;16.75;;;205.20;1996.80;;;;;;5089788;28;20115;-73
2021/03/18 10:57:57;;;;;;;22.75;17.13;;;205.20;1971.20;;;;;;5089647;28;20054;-73
2021/03/18 11:00:24;;;;;;;27.30;20.00;;;205.20;1971.20;;;;;;5072813;28;20021;-73
2021/03/18 11:03:17;;;;;;;31.02;20.52;;;205.30;1971.20;;;;;;5089505;28;20020;-73
2021/03/18 11:05:49;;;;;;;28.02;18.42;;;205.40;1996.80;;;;;;5069748;28;20063;-73
2021/03/18 11:08:29;;;;;;;21.20;14.70;;;205.40;1971.20;;;;;;5093243;28;20060;-73
2021/03/18 11:10:56;;;;;;;19.37;15.27;;;205.50;1971.20;;;;;;5094195;28;20020;-73
2021/03/18 11:13:28;;;;;;;22.27;15.43;;;205.50;1945.60;;;;;;5091711;28;20292;-73
2021/03/18 11:15:58;;;;;;;26.83;18.95;;;205.60;1945.60;;;;;;5093541;28;20061;-73
2021/03/18 11:18:44;;;;;;;21.85;16.48;;;205.70;1971.20;;;;;;5093864;28;20361;-73
2021/03/18 11:21:23;;;;;;;22.35;15.90;;;205.70;1894.40;;;;;;5093840;28;20024;-73
2021/03/18 11:23:50;;;;;;;18.40;14.18;;;205.70;1894.40;;;;;;5093783;28;20081;-73
2021/03/18 11:26:19;;;;;;;15.70;12.98;;;230.40;1920.00;;;;;;5093493;28;20109;-73
2021/03/18 11:28:57;;;;;;;15.02;11.77;;;205.70;1843.20;;;;;;5093250;28;20025;-73
2021/03/18 11:31:25;;;;;;;15.82;12.45;;;230.40;1843.20;;;;;;5091893;28;20444;-73
2021/03/18 11:33:52;;;;;;;19.67;12.48;;;205.70;1868.80;;;;;;5092398;28;20206;-74
2021/03/18 11:36:18;;;;;;;23.27;16.70;;;230.40;1843.20;;;;;;5091677;28;20039;-73
2021/03/18 11:38:45;;;;;;;25.10;16.23;;;230.50;1894.40;;;;;;5093508;28;20103;-73
2021/03/18 11:41:11;;;;;;;25.10;16.40;;;230.50;1868.80;;;;;;5093512;28;20030;-73
2021/03/18 11:43:37;;;;;;;24.88;17.00;;;230.50;1843.20;;;;;;5093196;28;20028;-73
2021/03/18 11:46:03;;;;;;;18.30;13.98;;;230.50;1817.60;;;;;;5092666;28;20032;-74
2021/03/18 11:48:29;;;;;;;20.17;14.75;;;230.60;1792.00;;;;;;5112385;28;20020;-74
2021/03/18 11:50:56;;;;;;;20.15;13.68;;;230.70;1817.60;;;;;;5113994;28;20023;-73
2021/03/18 11:53:22;;;;;;;23.08;12.85;;;230.80;1817.60;;;;;;5113643;28;20024;-74
2021/03/18 11:55:49;;;;;;;16.58;11.70;;;230.80;1766.40;;;;;;5112584;28;20080;-73
2021/03/18 11:58:15;;;;;;;17.27;12.20;;;230.80;1766.40;;;;;;5113379;28;20032;-73
2021/03/18 12:00:41;;;;;;;18.25;14.10;;;230.90;1792.00;;;;;;5112321;28;20376;-75
2021/03/18 12:03:10;;;;;;;14.88;10.80;;;231.00;1817.60;;;;;;5113460;28;20024;-73
2021/03/18 12:05:37;;;;;;;22.17;12.88;;;231.00;1766.40;;;;;;5111969;28;20031;-74
2021/03/18 12:08:04;;;;;;;14.27;10.38;;;231.10;1766.40;;;;;;5113402;28;20100;-73
2021/03/18 12:10:30;;;;;;;18.13;11.98;;;231.10;1740.80;;;;;;5114052;28;20479;-73
2021/03/18 12:12:56;;;;;;;20.27;12.20;;;231.20;1740.80;;;;;;5116604;28;20052;-73